^^
Datos históricos de la estación: Murcia-Puente Tocinos
Diario Informe para Marzo 20, 2019 Unidades:  Métrico    Ingés   Ambas
Diario Semanal Mensual Anual
  Máxima: Mínima: Promedio:
Temperatura: 31.1 °C 21.2 °C 25.2 °C
Punto de rocio: 18.5 °C 9.5 °C 15.4 °C
Humedad: 82% 31% 57%
Velocidad viento: 25.6km/h 0km/h 11.9km/h
Racha viento: 45.1km/h - -
Viento- - SE
Presión: 1011.0 hPa 1008.4 hPa -
Precipitación: 0.0 mm    
 
 
Tabla de datos para Marzo 20, 2019
Hora Temperatura Punto de rocio Presión Viento Velocidad viento Racha viento Humedad Intensidad lluvia(por hora) Nubes
00:04 23.7 °C 18 °C 1010.4 hPa NNE 3.9 km/h 11.1 km/h 70.7% 0.0 mm
00:09 23.5 °C 18.1 °C 1010.4 hPa NNE 4 km/h 11.3 km/h 71.9% 0.0 mm
00:14 23.3 °C 18.2 °C 1010.4 hPa NNE 4.7 km/h 8 km/h 72.9% 0.0 mm
00:19 23.2 °C 18.3 °C 1010.5 hPa NNE 4.7 km/h 10 km/h 73.8% 0.0 mm
00:24 23.1 °C 18.4 °C 1010.5 hPa NNE 4.7 km/h 9.7 km/h 74.9% 0.0 mm
00:29 22.9 °C 18.3 °C 1010.5 hPa NNE 4 km/h 7.4 km/h 75.2% 0.0 mm
00:34 22.9 °C 18.4 °C 1010.5 hPa NNE 2.9 km/h 8 km/h 76% 0.0 mm
00:39 22.8 °C 18.3 °C 1010.5 hPa NNO 2.9 km/h 8 km/h 76% 0.0 mm
00:44 22.8 °C 18.3 °C 1010.5 hPa NO 2.9 km/h 8 km/h 76% 0.0 mm
00:49 22.8 °C 18.3 °C 1010.6 hPa NO 3.5 km/h 8 km/h 76% 0.0 mm
00:54 22.8 °C 18.3 °C 1010.6 hPa NO 4.7 km/h 8 km/h 76% 0.0 mm
00:59 22.8 °C 18.3 °C 1010.6 hPa NO 4.1 km/h 7.4 km/h 76% 0.0 mm
01:04 22.8 °C 18.3 °C 1010.7 hPa NO 3.2 km/h 8 km/h 76% 0.0 mm
01:09 22.8 °C 18.3 °C 1010.7 hPa NNO 2.8 km/h 5.6 km/h 76% 0.0 mm
01:14 22.8 °C 18.3 °C 1010.7 hPa NO 2.2 km/h 7.4 km/h 76% 0.0 mm
01:19 22.8 °C 18.3 °C 1010.7 hPa NO 2.6 km/h 8 km/h 76% 0.0 mm
01:24 22.8 °C 18.3 °C 1010.7 hPa NO 3.2 km/h 8 km/h 76.1% 0.0 mm
01:29 22.7 °C 18.4 °C 1010.7 hPa NO 3.1 km/h 8 km/h 76.7% 0.0 mm
01:34 22.7 °C 18.2 °C 1010.7 hPa NNO 2.9 km/h 6.9 km/h 75.9% 0.0 mm
01:39 22.6 °C 18.1 °C 1010.7 hPa NNO 2.9 km/h 8 km/h 75.5% 0.0 mm
01:44 22.6 °C 18.3 °C 1010.7 hPa NO 2.9 km/h 8 km/h 76.7% 0.0 mm
01:49 22.5 °C 18.5 °C 1010.7 hPa NNO 3 km/h 6.4 km/h 77.9% 0.0 mm
01:54 22.4 °C 18.4 °C 1010.7 hPa NNO 3.2 km/h 6.4 km/h 78% 0.0 mm
01:59 22.4 °C 18.2 °C 1010.7 hPa NNO 3.1 km/h 4.8 km/h 77.3% 0.0 mm
02:04 22.3 °C 17.7 °C 1010.7 hPa NNO 2.9 km/h 3.2 km/h 75.4% 0.0 mm
02:09 22.2 °C 17.3 °C 1010.6 hPa NNO 1.8 km/h 4.7 km/h 74% 0.0 mm
02:14 22.2 °C 17.3 °C 1010.6 hPa Calm   4.8 km/h 74% 0.0 mm
02:19 22.2 °C 17.1 °C 1010.6 hPa Calm     73.2% 0.0 mm
02:24 22.2 °C 17.1 °C 1010.5 hPa Calm   2.9 km/h 73% 0.0 mm
02:29 22.2 °C 17.1 °C 1010.5 hPa Calm   3.7 km/h 73% 0.0 mm
02:34 22.2 °C 17.1 °C 1010.5 hPa Calm   3.2 km/h 73% 0.0 mm
02:39 22.2 °C 17.4 °C 1010.4 hPa Calm   3.7 km/h 74.2% 0.0 mm
02:44 22.2 °C 17.2 °C 1010.4 hPa Calm   7.6 km/h 73.2% 0.0 mm
02:49 22.2 °C 17 °C 1010.5 hPa ONO 1.4 km/h 8.4 km/h 72.5% 0.0 mm
02:54 22.1 °C 16.6 °C 1010.5 hPa ONO 3.9 km/h 8.4 km/h 71.2% 0.0 mm
02:59 21.9 °C 16.2 °C 1010.5 hPa Oeste 4.3 km/h 10 km/h 70.1% 0.0 mm
03:04 21.9 °C 16.2 °C 1010.5 hPa OSO 5 km/h 9.7 km/h 70% 0.0 mm
03:09 21.9 °C 16.2 °C 1010.4 hPa SO 5 km/h 9.7 km/h 70% 0.0 mm
03:14 21.9 °C 16.1 °C 1010.4 hPa SSO 5 km/h 8 km/h 69.8% 0.0 mm
03:19 22 °C 16.1 °C 1010.4 hPa SSE 4.9 km/h 8.4 km/h 69.3% 0.0 mm
03:24 22 °C 16.3 °C 1010.4 hPa SSE 4.7 km/h 10 km/h 70% 0.0 mm
03:29 22 °C 16.2 °C 1010.4 hPa Sur 5.3 km/h 9.7 km/h 70% 0.0 mm
03:34 21.9 °C 16.4 °C 1010.4 hPa SSO 6.5 km/h 8 km/h 70.9% 0.0 mm
03:39 21.9 °C 16.4 °C 1010.1 hPa Sur 5.9 km/h 11.1 km/h 71% 0.0 mm
03:44 21.8 °C 16.4 °C 1010.1 hPa SSE 5 km/h 13 km/h 71% 0.0 mm
03:49 21.7 °C 16.2 °C 1010.1 hPa Sur 5.9 km/h 13 km/h 71% 0.0 mm
03:54 21.6 °C 16.1 °C 1010.0 hPa SSE 7.6 km/h 12.9 km/h 71% 0.0 mm
03:59 21.4 °C 16 °C 1010.0 hPa Sur 7.6 km/h 11.3 km/h 71% 0.0 mm
04:04 21.4 °C 15.9 °C 1010.0 hPa Sur 7.6 km/h 13 km/h 71% 0.0 mm
04:09 21.4 °C 15.8 °C 1009.8 hPa SSO 7.3 km/h 12.9 km/h 70.4% 0.0 mm
04:14 21.5 °C 15.8 °C 1009.8 hPa SSO 6.9 km/h 11.9 km/h 69.8% 0.0 mm
04:19 21.6 °C 15.7 °C 1009.8 hPa SO 7.2 km/h 11.9 km/h 69% 0.0 mm
04:24 21.7 °C 15.8 °C 1009.7 hPa SO 7.6 km/h 11.3 km/h 69% 0.0 mm
04:29 21.8 °C 15.8 °C 1009.7 hPa SSO 7.3 km/h 11.3 km/h 69% 0.0 mm
04:34 21.8 °C 15.8 °C 1009.7 hPa SSO 6.9 km/h 15.6 km/h 69% 0.0 mm
04:39 21.7 °C 15.9 °C 1009.6 hPa SSO 7.5 km/h 17.2 km/h 69.5% 0.0 mm
04:44 21.7 °C 15.8 °C 1009.6 hPa SO 8.4 km/h 17.7 km/h 69.1% 0.0 mm
04:49 21.8 °C 15.9 °C 1009.6 hPa SO 9 km/h 16.1 km/h 69.3% 0.0 mm
04:54 21.8 °C 15.9 °C 1009.5 hPa SO 10 km/h 16.7 km/h 69.2% 0.0 mm
04:59 21.8 °C 15.7 °C 1009.5 hPa SO 9.5 km/h 16.1 km/h 68.5% 0.0 mm
05:04 21.8 °C 15.5 °C 1009.5 hPa SSO 8.7 km/h 14.5 km/h 67.5% 0.0 mm
05:09 21.9 °C 15.2 °C 1009.4 hPa SO 8 km/h 14.8 km/h 65.8% 0.0 mm
05:14 21.9 °C 14.6 °C 1009.4 hPa SO 6.9 km/h 14.5 km/h 63.1% 0.0 mm
05:19 22.1 °C 14.5 °C 1009.4 hPa SO 7.2 km/h 11.3 km/h 62% 0.0 mm
05:24 22.1 °C 14.2 °C 1009.4 hPa SO 7.6 km/h 11.3 km/h 61% 0.0 mm
05:29 22.1 °C 14.2 °C 1009.4 hPa SO 6.9 km/h 11.3 km/h 61% 0.0 mm
05:34 22.2 °C 14.3 °C 1009.4 hPa SO 5.8 km/h 9.7 km/h 61% 0.0 mm
05:39 22.2 °C 14.3 °C 1009.2 hPa OSO 5.8 km/h 9.7 km/h 61% 0.0 mm
05:44 22.2 °C 14.5 °C 1009.2 hPa SO 5.8 km/h 8.4 km/h 61.7% 0.0 mm
05:49 22.2 °C 14.6 °C 1009.3 hPa SO 5.4 km/h 10.3 km/h 62.1% 0.0 mm
05:54 22.2 °C 14.8 °C 1009.3 hPa SO 4.7 km/h 11.3 km/h 63% 0.0 mm
05:59 22.1 °C 14.7 °C 1009.3 hPa SO 5.1 km/h 9.7 km/h 63% 0.0 mm
06:04 22.1 °C 14.7 °C 1009.4 hPa SO 5.8 km/h 9.7 km/h 63% 0.0 mm
06:09 22.1 °C 14.6 °C 1009.4 hPa SO 5.5 km/h 11.1 km/h 62.5% 0.0 mm
06:14 22 °C 14.1 °C 1009.4 hPa SO 5 km/h 12.2 km/h 60.7% 0.0 mm
06:19 22 °C 13.8 °C 1009.5 hPa SSO 5.7 km/h 13 km/h 59.7% 0.0 mm
06:24 22 °C 13.7 °C 1009.5 hPa SO 6.9 km/h 12.9 km/h 59.3% 0.0 mm
06:29 22 °C 13.6 °C 1009.5 hPa SSO 6.5 km/h 11.3 km/h 58.7% 0.0 mm
06:34 22.1 °C 13.5 °C 1009.5 hPa SSO 5.8 km/h 9.7 km/h 58.2% 0.0 mm
06:39 22.2 °C 13.2 °C 1009.5 hPa SSO 5.5 km/h 9.7 km/h 57% 0.0 mm
06:44 22.2 °C 12.6 °C 1009.5 hPa SSO 5 km/h 8.7 km/h 54.4% 0.0 mm
06:49 22.4 °C 11.8 °C 1009.6 hPa SSO 5.3 km/h 11.1 km/h 51% 0.0 mm
06:54 22.7 °C 11.4 °C 1009.6 hPa SSO 5.8 km/h 11.3 km/h 48.9% 0.0 mm
06:59 22.9 °C 11.1 °C 1009.6 hPa SSO 5.8 km/h 11.9 km/h 47.2% 0.0 mm
07:04 23.2 °C 10.7 °C 1009.6 hPa SSO 5.8 km/h 11.9 km/h 45.4% 0.0 mm
07:09 23.3 °C 10.7 °C 1009.6 hPa SSO 6.4 km/h 11.3 km/h 44.9% 0.0 mm
07:14 23.4 °C 10.4 °C 1009.6 hPa SSO 7.6 km/h 14.8 km/h 44% 0.0 mm
07:19 23.6 °C 10.4 °C 1009.8 hPa SSO 8 km/h 14.8 km/h 43.5% 0.0 mm
07:24 23.7 °C 10.3 °C 1009.8 hPa SSO 8.7 km/h 14.5 km/h 42.9% 0.0 mm
07:29 23.8 °C 10.2 °C 1009.8 hPa SSO 8.6 km/h 16.7 km/h 42.2% 0.0 mm
07:34 24 °C 10.2 °C 1009.9 hPa SSO 8.4 km/h 16.1 km/h 41.9% 0.0 mm
07:39 24.1 °C 10 °C 1009.9 hPa SSO 8.5 km/h 14.5 km/h 41% 0.0 mm
07:44 24.2 °C 10.1 °C 1009.9 hPa SSO 8.7 km/h 14.8 km/h 41% 0.0 mm
07:49 24.3 °C 10 °C 1009.9 hPa SSO 8.7 km/h 14.5 km/h 40.6% 0.0 mm
07:54 24.3 °C 9.9 °C 1009.9 hPa SSO 8.7 km/h 14.8 km/h 40% 0.0 mm
07:59 24.5 °C 9.7 °C 1009.9 hPa SO 8.6 km/h 17.2 km/h 39.4% 0.0 mm
08:04 24.6 °C 9.8 °C 1009.9 hPa SSO 8.4 km/h 17.7 km/h 39% 0.0 mm
08:09 24.7 °C 9.8 °C 1009.9 hPa SO 8.5 km/h 14.8 km/h 39% 0.0 mm
08:14 24.7 °C 9.6 °C 1009.9 hPa SSO 8.7 km/h 14.5 km/h 38.3% 0.0 mm
08:19 24.7 °C 9.5 °C 1009.9 hPa SO 8.6 km/h 14.8 km/h 38% 0.0 mm
08:24 24.8 °C 9.6 °C 1009.9 hPa SO 8.4 km/h 14.8 km/h 38% 0.0 mm
08:29 25.1 °C 9.8 °C 1009.9 hPa SSO 8.5 km/h 14.8 km/h 38% 0.0 mm
08:34 25.2 °C 9.7 °C 1010.0 hPa SSO 8.7 km/h 14.5 km/h 37.6% 0.0 mm
08:39 25.3 °C 9.6 °C 1010.0 hPa SSO 8.6 km/h 13.7 km/h 37% 0.0 mm
08:44 25.6 °C 9.8 °C 1010.0 hPa SSO 8.4 km/h 14.5 km/h 37% 0.0 mm
08:49 25.8 °C 9.9 °C 1010.0 hPa SO 8.4 km/h 13.7 km/h 36.8% 0.0 mm
08:54 26 °C 9.7 °C 1009.9 hPa SO 8.4 km/h 16.7 km/h 36% 0.0 mm
08:59 26.1 °C 9.9 °C 1009.9 hPa SSO 8.4 km/h 16.1 km/h 36% 0.0 mm
09:04 26.3 °C 10 °C 1010.0 hPa SO 8.4 km/h 14.5 km/h 36% 0.0 mm
09:09 26.4 °C 10.1 °C 1010.0 hPa SO 8.1 km/h 13 km/h 36% 0.0 mm
09:14 26.6 °C 10.2 °C 1010.0 hPa SO 7.6 km/h 14.8 km/h 35.9% 0.0 mm
09:19 26.7 °C 10.4 °C 1010.0 hPa SO 7.6 km/h 14.8 km/h 36% 0.0 mm
09:24 26.8 °C 10.5 °C 1010.0 hPa SO 7.6 km/h 19 km/h 35.9% 0.0 mm
09:29 26.9 °C 10.5 °C 1010.0 hPa OSO 8 km/h 19.3 km/h 35.8% 0.0 mm
09:34 27.1 °C 10.5 °C 1010.0 hPa OSO 8.7 km/h 16.1 km/h 35.3% 0.0 mm
09:39 27.2 °C 10.8 °C 1010.0 hPa OSO 8.1 km/h 14.5 km/h 36% 0.0 mm
09:44 27.3 °C 10.5 °C 1010.0 hPa OSO 6.9 km/h 14.8 km/h 35.1% 0.0 mm
09:49 27.4 °C 10.9 °C 1010.0 hPa OSO 6.8 km/h 14.5 km/h 35.6% 0.0 mm
09:54 27.6 °C 10.8 °C 1009.9 hPa SO 6.5 km/h 15.6 km/h 35% 0.0 mm
09:59 27.7 °C 10.8 °C 1009.9 hPa Oeste 7.2 km/h 16.1 km/h 35% 0.0 mm
10:04 27.8 °C 11 °C 1010.0 hPa ONO 8.4 km/h 17.2 km/h 35.2% 0.0 mm
10:09 27.9 °C 11 °C 1010.0 hPa Oeste 8.9 km/h 20.9 km/h 35% 0.0 mm
10:14 27.9 °C 11 °C 1010.0 hPa Oeste 10 km/h 22.2 km/h 35% 0.0 mm
10:19 27.9 °C 11 °C 1010.0 hPa Oeste 10.7 km/h 22.5 km/h 35% 0.0 mm
10:24 28 °C 11.1 °C 1009.9 hPa Oeste 11.9 km/h 19.3 km/h 35% 0.0 mm
10:29 28.1 °C 11.2 °C 1009.9 hPa ONO 10.7 km/h 16.1 km/h 35% 0.0 mm
10:34 28.3 °C 11.3 °C 1009.9 hPa Oeste 8.7 km/h 14.8 km/h 34.9% 0.0 mm
10:39 28.4 °C 11.1 °C 1009.8 hPa Oeste 8.7 km/h 15.6 km/h 34.2% 0.0 mm
10:44 28.5 °C 11.1 °C 1009.8 hPa Oeste 8.7 km/h 16.1 km/h 34% 0.0 mm
10:49 28.6 °C 11.2 °C 1009.8 hPa Oeste 8.6 km/h 14.5 km/h 34% 0.0 mm
10:54 28.8 °C 11.4 °C 1009.8 hPa ONO 8.4 km/h 16.7 km/h 34% 0.0 mm
10:59 28.9 °C 11.4 °C 1009.8 hPa Oeste 7.6 km/h 16.1 km/h 34% 0.0 mm
11:04 28.9 °C 11.5 °C 1009.9 hPa OSO 6.5 km/h 12.9 km/h 34% 0.0 mm
11:09 29.2 °C 11.6 °C 1009.9 hPa SO 6.2 km/h 11.3 km/h 33.9% 0.0 mm
11:14 29.5 °C 11.6 °C 1009.9 hPa SO 5.8 km/h 11.1 km/h 33.2% 0.0 mm
11:19 29.7 °C 11.7 °C 1009.9 hPa Sur 5.5 km/h 11.3 km/h 33% 0.0 mm
11:24 29.9 °C 11.7 °C 1009.9 hPa NE 5 km/h 11.9 km/h 32.6% 0.0 mm
11:29 30.2 °C 11.6 °C 1009.9 hPa North 5.3 km/h 13 km/h 31.8% 0.0 mm
11:34 30.2 °C 11.5 °C 1009.9 hPa NNE 5.8 km/h 13 km/h 31.7% 0.0 mm
11:39 30.2 °C 11.7 °C 1009.9 hPa NE 6.2 km/h 13 km/h 32% 0.0 mm
11:44 30.4 °C 11.7 °C 1009.9 hPa NNO 6.9 km/h 12.9 km/h 31.7% 0.0 mm
11:49 30.6 °C 11.6 °C 1009.9 hPa NE 6.8 km/h 13 km/h 31.1% 0.0 mm
11:54 30.6 °C 11.6 °C 1009.9 hPa ESE 6.5 km/h 12.9 km/h 31% 0.0 mm
11:59 30.7 °C 11.8 °C 1009.9 hPa Este 5.9 km/h 9.7 km/h 31.4% 0.0 mm
12:04 30.8 °C 12.2 °C 1009.9 hPa NE 5 km/h 13 km/h 32% 0.0 mm
12:09 30.9 °C 12.8 °C 1009.8 hPa ENE 5.3 km/h 14.8 km/h 33% 0.0 mm
12:14 31.1 °C 12.8 °C 1009.8 hPa NE 5.8 km/h 14.8 km/h 32.8% 0.0 mm
12:19 31 °C 12.7 °C 1009.9 hPa NE 6.5 km/h 17.2 km/h 32.8% 0.0 mm
12:24 30.8 °C 12.7 °C 1009.9 hPa NE 7.6 km/h 17.7 km/h 32.9% 0.0 mm
12:29 30.8 °C 12.7 °C 1009.9 hPa North 8 km/h 17.2 km/h 33% 0.0 mm
12:34 30.8 °C 12.7 °C 1009.9 hPa NNE 8.7 km/h 20.4 km/h 33.1% 0.0 mm
12:39 30.7 °C 13.4 °C 1009.8 hPa NE 9.6 km/h 22.2 km/h 34.7% 0.0 mm
12:44 30.7 °C 13.6 °C 1009.8 hPa NE 11.1 km/h 22.5 km/h 35.2% 0.0 mm
12:49 30.8 °C 13.9 °C 1009.9 hPa NE 11.4 km/h 25.1 km/h 35.7% 0.0 mm
12:54 30.7 °C 14 °C 1009.9 hPa NE 11.9 km/h 25.9 km/h 36.3% 0.0 mm
12:59 30.5 °C 14.7 °C 1009.9 hPa NE 13 km/h 25.9 km/h 38.4% 0.0 mm
13:04 30.4 °C 15 °C 1009.9 hPa NE 14.8 km/h 35.2 km/h 39.3% 0.0 mm
13:09 30.2 °C 14.8 °C 1009.9 hPa NE 15.1 km/h 35.4 km/h 39.4% 0.0 mm
13:14 29.9 °C 14.9 °C 1009.9 hPa NE 15.6 km/h 31.7 km/h 40% 0.0 mm
13:19 29.8 °C 15.3 °C 1009.9 hPa NE 16.6 km/h 33.5 km/h 41.4% 0.0 mm
13:24 29.7 °C 15.4 °C 1009.9 hPa NE 18.4 km/h 33.8 km/h 42% 0.0 mm
13:29 29.6 °C 15.5 °C 1009.9 hPa ENE 19 km/h 33.3 km/h 42.5% 0.0 mm
13:34 29.3 °C 15.4 °C 1009.9 hPa NE 20.1 km/h 33.8 km/h 43% 0.0 mm
13:39 28.9 °C 15.6 °C 1009.9 hPa ENE 20.4 km/h 32.3 km/h 44.3% 0.0 mm
13:44 28.8 °C 15.4 °C 1009.9 hPa ENE 20.9 km/h 35.2 km/h 44.2% 0.0 mm
13:49 28.7 °C 15.5 °C 1009.9 hPa NE 20.6 km/h 35.4 km/h 44.7% 0.0 mm
13:54 28.7 °C 15.7 °C 1009.9 hPa NE 20.1 km/h 37.8 km/h 45.1% 0.0 mm
13:59 28.6 °C 15.8 °C 1009.9 hPa NE 19.7 km/h 37 km/h 46% 0.0 mm
14:04 28.7 °C 15.7 °C 1009.9 hPa NE 19 km/h 37 km/h 45.5% 0.0 mm
14:09 28.3 °C 15.6 °C 1009.9 hPa NE 19.4 km/h 37 km/h 46% 0.0 mm
14:14 28.2 °C 15.6 °C 1009.9 hPa NE 20.1 km/h 33.8 km/h 46.3% 0.0 mm
14:19 28.3 °C 15.5 °C 1009.9 hPa NE 20.4 km/h 39.9 km/h 45.9% 0.0 mm
14:24 28.2 °C 15.3 °C 1009.9 hPa NE 20.9 km/h 40.7 km/h 45.3% 0.0 mm
14:29 28.1 °C 15.5 °C 1009.9 hPa NE 21.3 km/h 40.2 km/h 46.2% 0.0 mm
14:34 28.1 °C 15.7 °C 1009.9 hPa NE 22.1 km/h 35.4 km/h 47% 0.0 mm
14:39 28 °C 16.2 °C 1009.8 hPa NE 22.1 km/h 40.7 km/h 48.7% 0.0 mm
14:44 27.8 °C 16.4 °C 1009.8 hPa NE 22.1 km/h 40.2 km/h 49.8% 0.0 mm
14:49 27.7 °C 16.5 °C 1009.9 hPa NE 22.7 km/h 43.1 km/h 50.5% 0.0 mm
14:54 27.7 °C 16.8 °C 1009.9 hPa NE 23.7 km/h 43.5 km/h 51.4% 0.0 mm
14:59 27.8 °C 16.7 °C 1009.9 hPa NE 23 km/h 40.7 km/h 51.2% 0.0 mm
15:04 27.4 °C 16.9 °C 1009.9 hPa NE 22.1 km/h 40.2 km/h 52.5% 0.0 mm
15:09 27.2 °C 17 °C 1009.7 hPa NE 23.4 km/h 44.9 km/h 53.8% 0.0 mm
15:14 27.3 °C 17.1 °C 1009.7 hPa NE 25.6 km/h 45.1 km/h 53.9% 0.0 mm
15:19 27.3 °C 17.2 °C 1009.7 hPa NE 23.9 km/h 41.8 km/h 54.1% 0.0 mm
15:24 27.3 °C 17.2 °C 1009.7 hPa NE 20.9 km/h 38.6 km/h 54% 0.0 mm
15:29 27.2 °C 17.3 °C 1009.7 hPa NE 21.2 km/h 37 km/h 55% 0.0 mm
15:34 27.1 °C 17.4 °C 1009.7 hPa NE 21.7 km/h 37 km/h 55.1% 0.0 mm
15:39 27.2 °C 17.2 °C 1009.7 hPa NE 22 km/h 39.6 km/h 54.4% 0.0 mm
15:44 27.2 °C 17.4 °C 1009.7 hPa NE 22.5 km/h 40.2 km/h 55.1% 0.0 mm
15:49 27.3 °C 17 °C 1009.7 hPa NE 21.2 km/h 33.8 km/h 53.4% 0.0 mm
15:54 27.3 °C 17.1 °C 1009.5 hPa NE 19 km/h 33.8 km/h 53.6% 0.0 mm
15:59 27.2 °C 17.3 °C 1009.5 hPa NE 20.8 km/h 35.2 km/h 54.7% 0.0 mm
16:04 27.4 °C 17 °C 1009.5 hPa NE 23.3 km/h 35.4 km/h 53% 0.0 mm
16:09 27.4 °C 16.4 °C 1009.3 hPa NE 22.4 km/h 33.8 km/h 50.8% 0.0 mm
16:14 27.3 °C 16.3 °C 1009.3 hPa NE 20.9 km/h 35.2 km/h 51.1% 0.0 mm
16:19 27.3 °C 16.4 °C 1009.3 hPa NE 21.5 km/h 35.4 km/h 51.4% 0.0 mm
16:24 27.4 °C 17 °C 1009.2 hPa NE 22.5 km/h 42 km/h 53% 0.0 mm
16:29 27.2 °C 16.8 °C 1009.2 hPa NE 22.9 km/h 42.6 km/h 53% 0.0 mm
16:34 27.3 °C 17.1 °C 1009.2 hPa NE 23.7 km/h 37 km/h 53.6% 0.0 mm
16:39 27.4 °C 17 °C 1009.0 hPa NE 23.5 km/h 39.6 km/h 53% 0.0 mm
16:44 27.4 °C 16.5 °C 1009.0 hPa NE 23.3 km/h 40.2 km/h 51.5% 0.0 mm
16:49 27.4 °C 16.6 °C 1009.0 hPa NE 22.7 km/h 33.8 km/h 51.7% 0.0 mm
16:54 27.4 °C 16.5 °C 1009.0 hPa NE 21.7 km/h 36.2 km/h 51.5% 0.0 mm
16:59 27.3 °C 16.6 °C 1009.0 hPa NE 21.9 km/h 37 km/h 52.3% 0.0 mm
17:04 27.3 °C 16.9 °C 1009.0 hPa NE 22.1 km/h 37 km/h 52.8% 0.0 mm
17:09 27.3 °C 16.9 °C 1009.0 hPa NE 21.3 km/h 37.8 km/h 53% 0.0 mm
17:14 27.4 °C 17 °C 1009.0 hPa NE 20.1 km/h 37 km/h 53% 0.0 mm
17:19 27.3 °C 16.9 °C 1009.0 hPa NE 20.7 km/h 35.4 km/h 53.3% 0.0 mm
17:24 27.2 °C 17.1 °C 1008.9 hPa NE 21.7 km/h 35.4 km/h 54% 0.0 mm
17:29 27.4 °C 17.2 °C 1008.9 hPa NE 21.9 km/h 33.8 km/h 53.9% 0.0 mm
17:34 27.2 °C 17.1 °C 1009.0 hPa NE 22.1 km/h 37 km/h 54% 0.0 mm
17:39 27.2 °C 17 °C 1009.0 hPa NE 22.2 km/h 37 km/h 54% 0.0 mm
17:44 27.1 °C 16.9 °C 1009.0 hPa NE 22.5 km/h 35.9 km/h 53.7% 0.0 mm
17:49 27 °C 16.8 °C 1009.0 hPa NE 22.5 km/h 35.9 km/h 53.9% 0.0 mm
17:54 27 °C 16.8 °C 1008.9 hPa NE 22.5 km/h 35.4 km/h 53.6% 0.0 mm
17:59 27.2 °C 16.8 °C 1008.9 hPa NE 21.9 km/h 33.5 km/h 53% 0.0 mm
18:04 27.3 °C 16.9 °C 1008.9 hPa NE 20.9 km/h 35.9 km/h 53% 0.0 mm
18:09 27.2 °C 17.1 °C 1008.7 hPa NE 20.6 km/h 35.4 km/h 53.9% 0.0 mm
18:14 27.2 °C 17 °C 1008.7 hPa NE 20.1 km/h 32.2 km/h 53.9% 0.0 mm
18:19 27.2 °C 17.1 °C 1008.7 hPa NE 20.1 km/h 32.2 km/h 54% 0.0 mm
18:24 27.2 °C 17.1 °C 1008.5 hPa NE 20.1 km/h 30.9 km/h 54% 0.0 mm
18:29 27.2 °C 17.1 °C 1008.5 hPa NE 20 km/h 32.2 km/h 54.2% 0.0 mm
18:34 26.9 °C 17.1 °C 1008.6 hPa NE 19.8 km/h 35.9 km/h 55.1% 0.0 mm
18:39 26.7 °C 17.1 °C 1008.6 hPa NE 21.1 km/h 35.4 km/h 56% 0.0 mm
18:44 26.7 °C 17.3 °C 1008.6 hPa NE 23.3 km/h 36.2 km/h 56.3% 0.0 mm
18:49 26.5 °C 17.3 °C 1008.6 hPa NE 22.9 km/h 37 km/h 57.2% 0.0 mm
18:54 26.5 °C 17.6 °C 1008.4 hPa NE 22.1 km/h 37 km/h 57.9% 0.0 mm
18:59 26.6 °C 17.6 °C 1008.4 hPa NE 20.5 km/h 35.2 km/h 57.6% 0.0 mm
19:04 26.4 °C 17.5 °C 1008.7 hPa NE 18.4 km/h 35.4 km/h 58.3% 0.0 mm
19:09 26.3 °C 17.6 °C 1008.7 hPa NE 19.7 km/h 33.8 km/h 59% 0.0 mm
19:14 26.3 °C 17.8 °C 1008.7 hPa NE 22.1 km/h 33.5 km/h 59.6% 0.0 mm
19:19 26.3 °C 17.9 °C 1008.7 hPa NE 21.3 km/h 33.8 km/h 60% 0.0 mm
19:24 26.3 °C 17.8 °C 1008.7 hPa NE 20.1 km/h 32.2 km/h 59.5% 0.0 mm
19:29 26.4 °C 17.7 °C 1008.7 hPa NNE 19.4 km/h 30.6 km/h 59% 0.0 mm
19:34 26.3 °C 17.8 °C 1008.7 hPa NE 18 km/h 29.6 km/h 59.5% 0.0 mm
19:39 26.2 °C 17.8 °C 1008.7 hPa NE 18.4 km/h 35.2 km/h 60% 0.0 mm
19:44 26 °C 17.7 °C 1008.7 hPa NE 19 km/h 35.4 km/h 60.3% 0.0 mm
19:49 26 °C 17.7 °C 1008.7 hPa NE 19.3 km/h 33.8 km/h 60.2% 0.0 mm
19:54 25.8 °C 17.7 °C 1008.7 hPa NE 19.8 km/h 32.2 km/h 61% 0.0 mm
19:59 25.8 °C 17.7 °C 1008.7 hPa NE 19.1 km/h 35.2 km/h 61% 0.0 mm
20:04 25.4 °C 17.6 °C 1008.9 hPa NE 18 km/h 35.4 km/h 62% 0.0 mm
20:09 25.3 °C 17.5 °C 1008.9 hPa NE 18.7 km/h 33.8 km/h 62% 0.0 mm
20:14 25.2 °C 17.6 °C 1008.9 hPa NE 19.8 km/h 34.3 km/h 62.8% 0.0 mm
20:19 25.1 °C 17.6 °C 1008.9 hPa NE 19.9 km/h 35.2 km/h 63.4% 0.0 mm
20:24 25 °C 17.7 °C 1008.9 hPa NE 20.1 km/h 35.4 km/h 64% 0.0 mm
20:29 24.8 °C 17.5 °C 1008.9 hPa NE 20 km/h 33.3 km/h 64% 0.0 mm
20:34 24.7 °C 17.5 °C 1009.1 hPa NE 19.8 km/h 33.8 km/h 64.2% 0.0 mm
20:39 24.6 °C 17.6 °C 1009.1 hPa NE 19.5 km/h 31.7 km/h 65.4% 0.0 mm
20:44 24.4 °C 17.7 °C 1009.1 hPa NE 19 km/h 35.2 km/h 66.3% 0.0 mm
20:49 24.2 °C 17.8 °C 1009.1 hPa NE 18.8 km/h 35.4 km/h 67.6% 0.0 mm
20:54 24.2 °C 17.9 °C 1009.1 hPa NE 18.4 km/h 29.6 km/h 68.1% 0.0 mm
20:59 23.9 °C 17.9 °C 1009.1 hPa NE 17.5 km/h 33.3 km/h 69.1% 0.0 mm
21:04 23.7 °C 17.9 °C 1009.3 hPa NE 16.1 km/h 33.8 km/h 70% 0.0 mm
21:09 23.5 °C 17.9 °C 1009.3 hPa NE 16.9 km/h 29.6 km/h 70.9% 0.0 mm
21:14 23.4 °C 18 °C 1009.3 hPa NE 18.4 km/h 29 km/h 71.8% 0.0 mm
21:19 23.3 °C 17.9 °C 1009.6 hPa NE 17.5 km/h 25.7 km/h 72% 0.0 mm
21:24 23.3 °C 17.9 °C 1009.6 hPa NE 16.1 km/h 20.9 km/h 72% 0.0 mm
21:29 23.2 °C 17.9 °C 1009.6 hPa NE 14.6 km/h 24.5 km/h 72.3% 0.0 mm
21:34 23 °C 17.9 °C 1009.7 hPa NE 11.9 km/h 24.1 km/h 73% 0.0 mm
21:39 22.9 °C 17.8 °C 1009.7 hPa NE 12.6 km/h 20.4 km/h 73.2% 0.0 mm
21:44 22.9 °C 18 °C 1009.7 hPa NE 13.7 km/h 20.9 km/h 74% 0.0 mm
21:49 22.8 °C 17.9 °C 1009.8 hPa NE 13.2 km/h 20.9 km/h 74% 0.0 mm
21:54 22.7 °C 17.9 °C 1009.8 hPa NE 12.2 km/h 22.5 km/h 74.6% 0.0 mm
21:59 22.6 °C 18 °C 1009.8 hPa NE 12.8 km/h 22.5 km/h 75.3% 0.0 mm
22:04 22.4 °C 18 °C 1009.9 hPa NE 13.7 km/h 22.5 km/h 76.3% 0.0 mm
22:09 22.3 °C 18.1 °C 1009.9 hPa NE 13.7 km/h 22.5 km/h 77% 0.0 mm
22:14 22.3 °C 18.1 °C 1009.9 hPa NE 13.7 km/h 20.9 km/h 77% 0.0 mm
22:19 22.2 °C 18.2 °C 1010.2 hPa NE 13 km/h 20.9 km/h 77.7% 0.0 mm
22:24 22.2 °C 18.2 °C 1010.2 hPa NE 11.9 km/h 20.9 km/h 78% 0.0 mm
22:29 22.1 °C 18.2 °C 1010.2 hPa NE 11.6 km/h 20.9 km/h 78.7% 0.0 mm
22:34 22.1 °C 18.3 °C 1010.6 hPa NE 11.1 km/h 19 km/h 79% 0.0 mm
22:39 22 °C 18.2 °C 1010.6 hPa NE 11.4 km/h 19.3 km/h 79% 0.0 mm
22:44 21.9 °C 18.3 °C 1010.6 hPa NE 11.9 km/h 19.3 km/h 79.9% 0.0 mm
22:49 21.8 °C 18.3 °C 1010.6 hPa NE 11.9 km/h 20.9 km/h 80% 0.0 mm
22:54 21.8 °C 18.2 °C 1010.6 hPa NE 11.9 km/h 20.9 km/h 80% 0.0 mm
22:59 21.8 °C 18.2 °C 1010.6 hPa NE 11.1 km/h 16.1 km/h 80% 0.0 mm
23:04 21.7 °C 18.1 °C 1010.6 hPa NE 10 km/h 17.2 km/h 80% 0.0 mm
23:09 21.7 °C 18.1 °C 1010.6 hPa NE 9.5 km/h 17.7 km/h 80% 0.0 mm
23:14 21.6 °C 18 °C 1010.6 hPa NE 8.7 km/h 16.7 km/h 80.1% 0.0 mm
23:19 21.6 °C 18.2 °C 1010.8 hPa NE 8.7 km/h 16.1 km/h 81% 0.0 mm
23:24 21.4 °C 18.1 °C 1010.8 hPa NE 8.7 km/h 16.1 km/h 81% 0.0 mm
23:29 21.4 °C 18 °C 1010.8 hPa NE 9.2 km/h 17.2 km/h 81% 0.0 mm
23:34 21.3 °C 17.9 °C 1010.8 hPa NE 10 km/h 20.4 km/h 81% 0.0 mm
23:39 21.3 °C 18.1 °C 1010.8 hPa NE 10.7 km/h 20.9 km/h 82% 0.0 mm
23:44 21.3 °C 18.1 °C 1010.8 hPa NE 11.9 km/h 18.5 km/h 82% 0.0 mm
23:49 21.3 °C 18.1 °C 1011.0 hPa NE 11.6 km/h 19.3 km/h 82% 0.0 mm
23:54 21.2 °C 18 °C 1011.0 hPa NE 11.1 km/h 22.2 km/h 82% 0.0 mm
23:59 21.2 °C 18 °C 1011.0 hPa NE 11.1 km/h 22.5 km/h 82% 0.0 mm
Murcia-Puente Tocinos, España
Compliments of Weather Underground - 3 mb

La estación de MeteoMurcia.com, publica sus datos en los siguientes proyectos:

Weather Underground PWS IMURCIAP2 Meteoclimatic www.awekas.at

W3Counter
Web Analytics